Time;durP1;ratioP1;P1;durP2;ratioP2;P2;SDS_P1;SDS_P2;PMS_P1;PMS_P2;Temp;Humidity;BMP_temperature;BMP_pressure;BME280_temperature;BME280_humidity;BME280_pressure;Samples;Min_cycle;Max_cycle;Signal;HPM_P1;HPM_P2
2022/03/17 00:00:25;;;;;;;89.50;54.03;;;;;;;1.65;71.53;101964.03;1702894;84;21093;-76
2022/03/17 00:02:54;;;;;;;78.87;49.13;;;;;;;1.69;72.25;101960.28;1702756;84;21049;-76
2022/03/17 00:05:21;;;;;;;87.30;53.43;;;;;;;1.77;72.00;101961.34;1702578;84;21065;-76
2022/03/17 00:07:48;;;;;;;79.13;48.17;;;;;;;1.75;71.98;101964.30;1702564;84;21075;-75
2022/03/17 00:10:17;;;;;;;90.10;51.20;;;;;;;1.84;72.22;101966.66;1702631;84;21024;-75
2022/03/17 00:12:47;;;;;;;77.97;48.47;;;;;;;1.87;72.16;101965.42;1702422;84;21546;-75
2022/03/17 00:15:16;;;;;;;82.92;49.55;;;;;;;1.86;71.95;101965.86;1702875;84;21295;-76
2022/03/17 00:17:43;;;;;;;87.10;52.90;;;;;;;1.86;71.85;101968.44;1702704;84;21076;-76
2022/03/17 00:20:11;;;;;;;81.43;48.70;;;;;;;1.87;72.09;101964.14;1703027;84;21025;-76
2022/03/17 00:22:39;;;;;;;81.80;47.80;;;;;;;1.86;71.77;101967.54;1702779;84;21037;-77
2022/03/17 00:25:09;;;;;;;80.43;50.07;;;;;;;1.82;71.72;101967.89;1703123;84;21029;-76
2022/03/17 00:27:36;;;;;;;84.90;50.57;;;;;;;1.77;71.72;101969.09;1702722;84;21146;-77
2022/03/17 00:30:05;;;;;;;83.30;48.77;;;;;;;1.75;71.84;101969.89;1702961;84;21041;-77
2022/03/17 00:32:33;;;;;;;78.80;46.93;;;;;;;1.75;71.89;101975.06;1702719;84;21533;-76
2022/03/17 00:37:46;;;;;;;82.50;47.20;;;;;;;1.69;71.65;101974.50;1703125;84;21036;-77
2022/03/17 00:40:13;;;;;;;79.77;47.63;;;;;;;1.67;72.08;101981.75;1702720;84;21153;-77
2022/03/17 00:42:40;;;;;;;79.73;49.53;;;;;;;1.66;71.97;101986.02;1704446;83;21069;-76
2022/03/17 00:45:12;;;;;;;84.00;50.80;;;;;;;1.74;72.91;101987.52;1711930;83;20921;-77
2022/03/17 00:47:40;;;;;;;77.33;46.67;;;;;;;1.88;73.47;101985.27;1712159;83;21049;-76
2022/03/17 00:50:08;;;;;;;73.90;46.07;;;;;;;1.93;72.82;101975.91;1711966;83;21463;-77
2022/03/17 00:52:36;;;;;;;81.27;49.70;;;;;;;1.97;73.14;101958.35;1712089;83;21112;-76
2022/03/17 00:55:06;;;;;;;82.07;49.07;;;;;;;2.03;73.36;101945.55;1711804;83;20990;-76
2022/03/17 00:57:40;;;;;;;80.17;49.05;;;;;;;2.07;73.40;101930.55;1712334;83;20993;-76
2022/03/17 01:00:07;;;;;;;87.03;50.37;;;;;;;2.07;73.26;101918.91;1711254;83;21013;-76
2022/03/17 01:02:35;;;;;;;82.17;49.98;;;;;;;2.01;72.97;101905.84;1712299;83;21036;-77
2022/03/17 01:05:04;;;;;;;83.17;47.43;;;;;;;1.94;73.06;101900.97;1711925;83;21369;-76
2022/03/17 01:07:32;;;;;;;76.20;46.83;;;;;;;1.87;72.90;101895.20;1712028;83;20944;-77
2022/03/17 01:10:00;;;;;;;71.87;44.80;;;;;;;1.79;72.77;101902.77;1711864;83;20986;-77
2022/03/17 01:12:27;;;;;;;80.93;47.20;;;;;;;1.75;72.71;101913.02;1712256;83;21045;-77
2022/03/17 01:14:54;;;;;;;82.33;48.80;;;;;;;1.67;72.82;101911.55;1711864;83;21154;-77
2022/03/17 01:17:22;;;;;;;86.70;49.10;;;;;;;1.63;72.65;101912.72;1712064;83;21103;-77
2022/03/17 01:19:49;;;;;;;81.80;50.07;;;;;;;1.54;72.39;101910.36;1711865;83;20945;-76
2022/03/17 01:22:17;;;;;;;80.63;48.40;;;;;;;1.47;72.43;101919.22;1711932;83;21040;-76
2022/03/17 01:24:47;;;;;;;78.90;47.20;;;;;;;1.44;72.75;101913.58;1711836;83;21510;-77
2022/03/17 01:27:13;;;;;;;78.17;46.23;;;;;;;1.44;72.66;101913.58;1712105;83;21482;-76
2022/03/17 01:29:43;;;;;;;81.27;49.53;;;;;;;1.38;72.62;101913.41;1711801;83;21133;-76
2022/03/17 01:32:10;;;;;;;79.60;47.87;;;;;;;1.35;72.54;101910.75;1712155;83;21490;-77
2022/03/17 01:34:37;;;;;;;78.57;47.37;;;;;;;1.28;72.70;101917.91;1711917;83;21006;-77
2022/03/17 01:37:04;;;;;;;78.30;46.40;;;;;;;1.25;72.79;101928.16;1712139;83;21473;-77
2022/03/17 01:39:31;;;;;;;82.10;50.53;;;;;;;1.22;72.77;101935.41;1711923;83;21546;-77
2022/03/17 01:42:02;;;;;;;81.57;47.73;;;;;;;1.27;73.65;101933.80;1712140;83;21311;-77
2022/03/17 01:44:29;;;;;;;81.60;47.88;;;;;;;1.32;73.38;101921.01;1704786;83;21032;-77
2022/03/17 01:49:42;;;;;;;80.40;46.07;;;;;;;1.25;73.03;101914.83;1702781;84;21033;-77
2022/03/17 01:52:09;;;;;;;75.97;47.40;;;;;;;1.25;73.15;101923.00;1702944;84;21046;-77
2022/03/17 01:54:37;;;;;;;75.10;45.40;;;;;;;1.21;73.00;101920.73;1702842;84;21804;-76
2022/03/17 01:57:07;;;;;;;77.17;45.03;;;;;;;1.18;72.98;101915.91;1702883;84;21507;-78
2022/03/17 01:59:36;;;;;;;74.70;44.63;;;;;;;1.16;73.06;101914.99;1702829;84;20985;-77
2022/03/17 02:02:10;;;;;;;76.83;45.33;;;;;;;1.11;72.73;101911.89;1702979;84;21044;-77
2022/03/17 02:04:40;;;;;;;79.03;49.23;;;;;;;1.02;72.65;101910.34;1702673;84;21596;-76
2022/03/17 02:07:07;;;;;;;83.78;50.08;;;;;;;0.99;73.04;101908.97;1703148;84;21135;-76
2022/03/17 02:09:36;;;;;;;78.80;48.83;;;;;;;0.99;73.46;101910.26;1702623;84;21558;-77
2022/03/17 02:15:00;;;;;;;72.83;43.60;;;;;;;1.08;73.71;101913.11;1702769;84;21081;-77
2022/03/17 02:17:32;;;;;;;73.47;44.37;;;;;;;1.08;73.61;101913.11;1703014;84;21579;-76
2022/03/17 02:20:01;;;;;;;72.93;42.33;;;;;;;1.04;73.10;101915.13;1702757;84;21220;-76
2022/03/17 02:22:29;;;;;;;73.55;45.40;;;;;;;0.94;72.84;101913.12;1702817;84;21097;-77
2022/03/17 02:27:46;;;;;;;74.00;45.53;;;;;;;0.82;72.87;101921.85;1703131;84;21029;-76
2022/03/17 02:30:18;;;;;;;;;;;;;;;0.76;73.01;101922.56;1705370;84;21491;-76
2022/03/17 02:32:46;;;;;;;80.13;44.83;;;;;;;0.72;72.86;101925.00;1702942;84;21117;-77
2022/03/17 02:35:20;;;;;;;82.33;45.93;;;;;;;0.65;73.03;101924.84;1702708;84;21448;-77
2022/03/17 02:37:47;;;;;;;84.37;47.93;;;;;;;0.64;73.12;101925.68;1702947;84;21033;-77
2022/03/17 02:40:14;;;;;;;76.37;44.33;;;;;;;0.64;73.15;101921.81;1702674;84;20994;-77
2022/03/17 02:42:41;;;;;;;76.30;43.80;;;;;;;0.60;73.09;101917.38;1702907;84;21048;-77
2022/03/17 02:45:13;;;;;;;73.03;43.27;;;;;;;0.59;73.10;101919.94;1702322;84;21153;-76
2022/03/17 02:47:42;;;;;;;76.80;46.43;;;;;;;0.54;72.90;101922.80;1702567;84;21056;-77
2022/03/17 02:50:11;;;;;;;77.23;45.47;;;;;;;0.50;73.08;101918.36;1702510;84;21029;-77
2022/03/17 02:52:38;;;;;;;74.50;46.07;;;;;;;0.46;73.06;101922.98;1702935;84;21461;-77
2022/03/17 02:55:08;;;;;;;73.50;43.07;;;;;;;0.45;73.46;101924.70;1702729;84;21006;-76
2022/03/17 02:57:36;;;;;;;77.03;45.43;;;;;;;0.42;73.47;101917.75;1703110;84;21624;-77
2022/03/17 03:00:07;;;;;;;78.10;46.30;;;;;;;0.38;73.15;101917.18;1702725;84;21439;-77
2022/03/17 03:02:35;;;;;;;;;;;;;;;0.36;73.33;101919.25;1705256;84;21603;-77
2022/03/17 03:05:07;;;;;;;73.17;44.20;;;;;;;0.37;73.79;101919.31;1702712;84;20176;-77
2022/03/17 03:07:37;;;;;;;76.10;43.80;;;;;;;0.33;73.41;101915.30;1702749;84;21032;-77
2022/03/17 03:10:06;;;;;;;85.67;48.67;;;;;;;0.27;73.35;101921.57;1702924;84;21159;-76
2022/03/17 03:12:34;;;;;;;79.80;46.13;;;;;;;0.23;73.35;101924.91;1702794;84;20993;-77
2022/03/17 03:15:01;;;;;;;73.53;45.70;;;;;;;0.19;73.45;101931.27;1702790;84;21018;-76
2022/03/17 03:17:29;;;;;;;79.07;46.30;;;;;;;0.23;73.93;101932.22;1702874;84;21045;-76
2022/03/17 03:19:56;;;;;;;73.40;45.17;;;;;;;0.25;73.81;101925.80;1702984;84;21141;-75
2022/03/17 03:22:29;;;;;;;75.80;45.13;;;;;;;0.24;73.44;101930.52;1703125;84;21183;-76
2022/03/17 03:24:57;;;;;;;78.50;46.33;;;;;;;0.18;73.51;101933.78;1702737;84;21068;-76
2022/03/17 03:27:27;;;;;;;84.57;46.97;;;;;;;0.15;73.83;101935.85;1703130;84;21032;-76
2022/03/17 03:29:58;;;;;;;84.83;46.87;;;;;;;0.17;73.77;101946.23;1702616;83;21523;-77
2022/03/17 03:32:27;;;;;;;76.77;45.47;;;;;;;0.14;73.73;101947.39;1703022;84;21081;-77
2022/03/17 03:34:54;;;;;;;75.97;44.90;;;;;;;0.11;73.56;101946.02;1702919;84;21957;-76
2022/03/17 03:37:25;;;;;;;73.80;44.83;;;;;;;0.08;73.56;101947.22;1703035;84;20990;-76
2022/03/17 03:39:56;;;;;;;76.70;45.23;;;;;;;0.05;73.57;101950.98;1702751;84;21538;-77
2022/03/17 03:42:25;;;;;;;78.83;46.23;;;;;;;0.00;73.57;101956.02;1702309;83;20993;-77
2022/03/17 03:47:54;;;;;;;86.70;49.67;;;;;;;-0.01;73.91;101960.70;1741850;82;21843;-77
2022/03/17 03:50:22;;;;;;;87.77;52.97;;;;;;;0.04;74.63;101964.30;1741505;82;21013;-77
2022/03/17 03:52:49;;;;;;;83.13;47.93;;;;;;;0.14;75.07;101962.86;1741602;82;21005;-76
2022/03/17 03:55:17;;;;;;;77.30;45.47;;;;;;;0.21;74.79;101968.27;1741667;82;20990;-77
2022/03/17 03:57:46;;;;;;;78.23;45.47;;;;;;;0.16;74.14;101972.41;1741484;82;21029;-77
2022/03/17 04:00:32;;;;;;;81.63;46.00;;;;;;;0.12;74.02;101977.44;1741499;82;21234;-77
2022/03/17 04:02:59;;;;;;;82.40;48.53;;;;;;;0.09;74.06;101987.66;1741577;82;20994;-77
2022/03/17 04:05:31;;;;;;;83.53;48.00;;;;;;;0.08;74.49;101990.63;1741656;82;21029;-77
2022/03/17 04:07:56;;;;;;;84.13;49.20;;;;;;;0.09;74.52;102001.84;1740268;82;21064;-77
2022/03/17 04:10:27;;;;;;;88.83;51.27;;;;;;;0.09;74.53;102005.28;1741513;82;21476;-77
2022/03/17 04:12:54;;;;;;;82.67;49.42;;;;;;;0.13;75.09;102009.70;1741859;82;21916;-78
2022/03/17 04:15:22;;;;;;;81.77;48.17;;;;;;;0.17;74.78;102006.41;1741380;82;21009;-76
2022/03/17 04:17:50;;;;;;;82.23;50.23;;;;;;;0.12;74.48;102010.53;1741781;82;20990;-77
2022/03/17 04:20:17;;;;;;;88.97;51.43;;;;;;;0.17;75.31;102007.69;1741459;82;21021;-77
2022/03/17 04:22:45;;;;;;;81.43;49.80;;;;;;;0.23;75.35;102005.72;1741761;82;21057;-74
2022/03/17 04:25:12;;;;;;;81.17;48.30;;;;;;;0.24;75.59;102007.45;1741459;82;21130;-76
2022/03/17 04:27:40;;;;;;;78.87;47.30;;;;;;;0.31;75.74;102002.09;1741775;82;21014;-77
2022/03/17 04:30:09;;;;;;;82.97;47.73;;;;;;;0.34;75.70;102006.92;1741742;82;21028;-77
2022/03/17 04:32:36;;;;;;;79.27;48.03;;;;;;;0.36;75.68;102004.38;1741501;82;21024;-77
2022/03/17 04:35:06;;;;;;;82.93;48.63;;;;;;;0.37;75.62;102006.14;1741864;82;21048;-77
2022/03/17 04:37:33;;;;;;;80.80;50.03;;;;;;;0.33;75.18;102002.98;1741953;82;21094;-77
2022/03/17 04:40:03;;;;;;;82.03;47.27;;;;;;;0.29;75.12;102012.77;1741525;82;21042;-77
2022/03/17 04:42:30;;;;;;;77.00;45.30;;;;;;;0.28;75.10;102023.89;1741804;82;21470;-76
2022/03/17 04:44:57;;;;;;;75.20;47.47;;;;;;;0.23;74.96;102013.88;1741687;82;21414;-77
2022/03/17 04:47:25;;;;;;;79.90;46.20;;;;;;;0.16;74.71;102011.08;1727900;82;21586;-77
2022/03/17 04:49:52;;;;;;;84.93;49.00;;;;;;;0.14;75.02;102011.85;1721348;83;22002;-77
2022/03/17 04:55:06;;;;;;;74.47;46.10;;;;;;;0.16;75.39;102023.10;1721730;83;21297;-78
2022/03/17 04:57:34;;;;;;;79.90;47.37;;;;;;;0.16;75.29;102023.97;1721447;83;21532;-78
2022/03/17 05:00:01;;;;;;;81.13;48.50;;;;;;;0.14;75.11;102028.23;1721638;83;22075;-76
2022/03/17 05:02:28;;;;;;;81.27;48.47;;;;;;;0.12;75.00;102029.87;1721449;83;21747;-77
2022/03/17 05:04:55;;;;;;;82.43;48.40;;;;;;;0.09;74.87;102034.06;1721301;83;22048;-76
2022/03/17 05:07:22;;;;;;;83.23;50.63;;;;;;;0.08;75.11;102034.45;1721328;83;20986;-77
2022/03/17 05:09:50;;;;;;;86.37;49.57;;;;;;;0.09;75.13;102036.22;1721546;83;21491;-78
2022/03/17 05:12:17;;;;;;;88.53;52.93;;;;;;;0.10;75.12;102038.38;1721365;83;21301;-77
2022/03/17 05:14:44;;;;;;;78.83;49.00;;;;;;;0.08;75.19;102042.19;1721352;83;21812;-77
2022/03/17 05:17:11;;;;;;;83.57;49.43;;;;;;;0.08;75.12;102045.19;1721256;83;21563;-77
2022/03/17 05:19:39;;;;;;;74.80;46.90;;;;;;;0.06;75.08;102037.84;1721463;83;21408;-77
2022/03/17 05:22:07;;;;;;;80.93;47.67;;;;;;;0.03;75.02;102042.48;1721665;83;21009;-77
2022/03/17 05:24:34;;;;;;;79.93;47.80;;;;;;;0.02;74.97;102035.55;1721351;83;21474;-77
2022/03/17 05:27:01;;;;;;;84.40;48.10;;;;;;;0.01;75.08;102035.52;1721603;83;21107;-77
2022/03/17 05:29:28;;;;;;;83.00;50.27;;;;;;;0.06;75.81;102030.11;1721253;83;20987;-76
2022/03/17 05:31:55;;;;;;;83.43;51.37;;;;;;;0.12;76.11;102031.16;1721702;83;20998;-77
2022/03/17 05:34:22;;;;;;;81.03;49.27;;;;;;;0.18;76.03;102036.92;1721461;83;21022;-74
2022/03/17 05:36:50;;;;;;;87.20;51.53;;;;;;;0.19;75.87;102039.57;1721578;83;21013;-77
2022/03/17 05:39:17;;;;;;;105.47;54.57;;;;;;;0.23;75.96;102043.53;1721285;83;21204;-77
2022/03/17 05:41:45;;;;;;;227.10;82.13;;;;;;;0.27;76.02;102047.94;1721640;83;21477;-77
2022/03/17 05:44:12;;;;;;;193.70;76.63;;;;;;;0.30;76.14;102041.59;1721117;83;21049;-77
2022/03/17 05:46:39;;;;;;;118.93;59.00;;;;;;;0.37;76.34;102046.13;1721316;81;21065;-77
2022/03/17 05:49:06;;;;;;;128.10;61.77;;;;;;;0.47;76.60;102046.84;1721202;83;21014;-77
2022/03/17 05:51:33;;;;;;;125.83;60.77;;;;;;;0.55;76.67;102049.66;1721660;83;21126;-77
2022/03/17 05:54:00;;;;;;;94.33;54.47;;;;;;;0.63;76.73;102049.06;1721268;83;21003;-77
2022/03/17 05:56:27;;;;;;;88.70;49.23;;;;;;;0.70;76.66;102047.56;1721719;83;21053;-77
2022/03/17 05:58:54;;;;;;;84.77;50.80;;;;;;;0.74;76.60;102049.81;1723121;81;21017;-75
2022/03/17 06:01:21;;;;;;;89.70;52.73;;;;;;;0.81;76.79;102050.46;1743871;82;21007;-77
2022/03/17 06:03:48;;;;;;;85.83;51.73;;;;;;;0.91;76.96;102052.88;1732516;82;21453;-78
2022/03/17 06:06:16;;;;;;;91.67;52.63;;;;;;;0.99;77.01;102057.85;1715873;82;21292;-77
2022/03/17 06:08:44;;;;;;;89.37;53.10;;;;;;;1.06;77.03;102063.24;1715391;83;32721;-78
2022/03/17 06:11:11;;;;;;;83.07;49.40;;;;;;;1.14;77.05;102066.05;1746532;82;21011;-78
2022/03/17 06:13:38;;;;;;;86.23;52.77;;;;;;;1.20;77.12;102070.09;1717854;83;21004;-78
2022/03/17 06:16:07;;;;;;;81.30;49.67;;;;;;;1.27;77.17;102069.41;1746548;82;21008;-77
2022/03/17 06:18:34;;;;;;;90.93;52.77;;;;;;;1.39;77.34;102074.48;1717604;83;21576;-78
2022/03/17 06:21:01;;;;;;;93.23;59.17;;;;;;;1.47;77.42;102075.16;1746805;82;21010;-77
2022/03/17 06:23:28;;;;;;;91.47;56.13;;;;;;;1.58;77.55;102074.16;1717842;83;21055;-78
2022/03/17 06:25:56;;;;;;;92.47;57.17;;;;;;;1.70;77.68;102078.34;1746445;82;21011;-78
2022/03/17 06:28:23;;;;;;;90.93;58.60;;;;;;;1.82;77.72;102080.36;1717871;83;21119;-78
2022/03/17 06:30:51;;;;;;;99.20;58.70;;;;;;;1.92;77.70;102082.78;1782551;80;20997;-77
2022/03/17 06:33:18;;;;;;;95.23;56.47;;;;;;;2.03;77.72;102081.76;1790086;80;21073;-76
2022/03/17 06:35:45;;;;;;;97.13;59.50;;;;;;;2.14;77.72;102082.89;1751672;81;21492;-78
2022/03/17 06:38:13;;;;;;;97.23;60.23;;;;;;;2.22;77.58;102085.25;1779797;80;21023;-77
2022/03/17 06:40:41;;;;;;;94.90;59.10;;;;;;;2.29;77.67;102083.25;1749722;80;21098;-78
2022/03/17 06:43:08;;;;;;;96.37;59.57;;;;;;;2.39;77.64;102086.52;1722964;82;21072;-75
2022/03/17 06:45:35;;;;;;;90.63;58.50;;;;;;;2.50;77.70;102083.32;1754678;80;21011;-76
2022/03/17 06:48:03;;;;;;;103.70;63.87;;;;;;;2.60;77.61;102081.37;1758672;81;20981;-77
2022/03/17 06:50:30;;;;;;;101.17;65.23;;;;;;;2.70;77.62;102082.05;1789647;80;21010;-78
2022/03/17 06:52:57;;;;;;;96.87;62.60;;;;;;;2.82;77.63;102083.59;1789811;80;21294;-78
2022/03/17 06:55:25;;;;;;;96.90;61.83;;;;;;;2.94;77.63;102083.01;1789419;80;20946;-76
2022/03/17 06:57:52;;;;;;;103.90;63.53;;;;;;;3.04;77.57;102087.52;1789742;80;20994;-76
2022/03/17 07:00:20;;;;;;;96.87;62.30;;;;;;;3.15;77.59;102090.34;1789530;80;21049;-73
2022/03/17 07:02:48;;;;;;;96.50;61.50;;;;;;;3.27;77.49;102092.30;1789938;80;20994;-76
2022/03/17 07:05:15;;;;;;;100.30;63.13;;;;;;;3.36;77.39;102093.80;1789915;80;21213;-73
2022/03/17 07:07:46;;;;;;;97.07;62.03;;;;;;;3.46;77.37;102085.76;1789699;80;20983;-78
2022/03/17 07:10:15;;;;;;;93.00;60.33;;;;;;;3.56;77.31;102087.27;1789478;80;20967;-76
2022/03/17 07:12:43;;;;;;;95.38;60.75;;;;;;;3.65;77.12;102089.58;1789956;80;21022;-77
2022/03/17 07:15:14;;;;;;;95.37;60.57;;;;;;;3.72;77.04;102088.42;1789558;80;21013;-77
2022/03/17 07:17:42;;;;;;;90.38;59.53;;;;;;;3.81;77.03;102094.20;1770995;80;21742;-73
2022/03/17 07:20:14;;;;;;;90.80;60.13;;;;;;;3.89;76.91;102090.45;1766125;80;21017;-75
2022/03/17 07:22:44;;;;;;;91.47;58.03;;;;;;;3.94;76.81;102091.41;1766224;81;21021;-74
2022/03/17 07:25:12;;;;;;;94.42;60.28;;;;;;;4.01;76.79;102101.03;1780409;80;20976;-74
2022/03/17 07:27:45;;;;;;;100.17;66.30;;;;;;;4.07;76.76;102106.31;1789597;80;21062;-74
2022/03/17 07:30:19;;;;;;;115.90;69.93;;;;;;;4.14;76.79;102107.31;1789876;80;22014;-75
2022/03/17 07:32:48;;;;;;;98.17;61.17;;;;;;;4.22;76.68;102105.29;1789425;80;20965;-75
2022/03/17 07:35:15;;;;;;;94.17;61.53;;;;;;;4.31;76.58;102112.78;1789927;80;21243;-74
2022/03/17 07:37:44;;;;;;;100.70;63.87;;;;;;;4.37;76.53;102108.55;1789455;80;21066;-75
2022/03/17 07:40:12;;;;;;;92.43;63.63;;;;;;;4.43;76.47;102099.98;1785644;80;20994;-74
2022/03/17 07:42:39;;;;;;;95.20;63.40;;;;;;;4.52;76.41;102105.34;1763804;81;21485;-74
2022/03/17 07:45:25;;;;;;;97.23;64.47;;;;;;;4.59;76.36;102104.98;1766412;80;21010;-71
2022/03/17 07:48:10;;;;;;;96.23;62.07;;;;;;;4.69;76.38;102106.45;1742015;82;21021;-76
2022/03/17 07:50:39;;;;;;;91.43;60.43;;;;;;;4.78;76.11;102113.50;1751784;81;20981;-72
2022/03/17 07:53:06;;;;;;;96.10;62.43;;;;;;;4.83;76.07;102105.34;1787975;80;20984;-74
2022/03/17 07:55:35;;;;;;;94.70;62.67;;;;;;;4.91;75.88;102105.03;1774159;79;21389;-73
2022/03/17 07:58:02;;;;;;;94.50;62.37;;;;;;;5.00;75.79;102108.61;1728891;81;21504;-72
2022/03/17 08:00:30;;;;;;;93.40;61.37;;;;;;;5.07;75.69;102107.81;1749372;80;21083;-73
2022/03/17 08:02:59;;;;;;;93.53;61.77;;;;;;;5.13;75.68;102113.98;1748768;82;21000;-73
2022/03/17 08:05:26;;;;;;;87.37;60.63;;;;;;;5.20;75.58;102118.82;1748342;82;21027;-73
2022/03/17 08:07:53;;;;;;;92.20;60.03;;;;;;;5.28;75.66;102117.19;1748463;82;21565;-73
2022/03/17 08:10:20;;;;;;;89.90;62.90;;;;;;;5.40;75.62;102116.89;1748349;82;20988;-73
2022/03/17 08:12:48;;;;;;;89.67;62.33;;;;;;;5.48;75.46;102114.81;1748631;82;21019;-73
2022/03/17 08:15:16;;;;;;;99.40;63.30;;;;;;;5.56;75.34;102115.78;1748373;82;20963;-72
2022/03/17 08:17:44;;;;;;;93.23;63.17;;;;;;;5.64;75.14;102121.51;1748476;82;21078;-73
2022/03/17 08:20:11;;;;;;;102.40;68.97;;;;;;;5.71;75.13;102115.50;1764361;81;21062;-73
2022/03/17 08:22:40;;;;;;;92.63;63.50;;;;;;;5.80;75.05;102114.31;1765698;80;20980;-74
2022/03/17 08:25:08;;;;;;;87.90;61.93;;;;;;;5.91;75.09;102113.12;1765551;81;21007;-74
2022/03/17 08:27:38;;;;;;;92.17;63.90;;;;;;;6.01;74.93;102109.36;1765877;81;21007;-74
2022/03/17 08:30:08;;;;;;;100.35;65.47;;;;;;;6.12;74.77;102108.13;1781890;80;21529;-74
2022/03/17 08:32:35;;;;;;;101.20;67.40;;;;;;;6.22;74.59;102112.99;1754564;81;21106;-74
2022/03/17 08:35:03;;;;;;;96.03;65.00;;;;;;;6.34;74.42;102114.81;1781688;80;20955;-73
2022/03/17 08:37:30;;;;;;;95.00;64.90;;;;;;;6.40;74.19;102105.73;1756882;81;20983;-73
2022/03/17 08:39:57;;;;;;;97.67;64.93;;;;;;;6.51;74.09;102103.22;1737483;82;21107;-73
2022/03/17 08:42:24;;;;;;;96.37;63.97;;;;;;;6.63;73.95;102105.92;1751914;81;21012;-73
2022/03/17 08:44:51;;;;;;;101.83;65.37;;;;;;;6.72;73.77;102108.58;1789446;80;21937;-71
2022/03/17 08:50:05;;;;;;;97.43;70.90;;;;;;;6.95;73.25;102107.84;1778688;80;21032;-72
2022/03/17 08:52:33;;;;;;;108.00;69.13;;;;;;;7.02;72.94;102107.88;1778902;80;21484;-74
2022/03/17 08:54:59;;;;;;;99.07;69.87;;;;;;;7.10;72.76;102111.84;1778364;80;21031;-73
2022/03/17 08:57:26;;;;;;;101.17;69.93;;;;;;;7.19;72.39;102110.56;1778794;80;22058;-73
2022/03/17 08:59:53;;;;;;;97.73;68.30;;;;;;;7.27;72.19;102106.25;1778549;80;21009;-73
2022/03/17 09:02:20;;;;;;;100.47;70.37;;;;;;;7.36;72.03;102106.28;1778850;80;20977;-73
2022/03/17 09:04:48;;;;;;;97.33;67.33;;;;;;;7.43;71.72;102111.11;1778580;80;21041;-76
2022/03/17 09:07:15;;;;;;;95.07;69.10;;;;;;;7.53;71.48;102111.98;1779108;80;21004;-76
2022/03/17 09:09:42;;;;;;;97.50;70.03;;;;;;;7.62;71.23;102117.25;1757868;80;21117;-76
2022/03/17 09:12:09;;;;;;;91.40;67.07;;;;;;;7.72;71.08;102117.69;1726351;81;21553;-75
2022/03/17 09:14:40;;;;;;;90.70;65.63;;;;;;;7.80;70.75;102122.94;1710180;83;20904;-76
2022/03/17 09:17:07;;;;;;;99.77;68.47;;;;;;;7.90;70.57;102123.81;1718744;82;21031;-75
2022/03/17 09:19:34;;;;;;;98.97;68.73;;;;;;;8.00;70.29;102121.22;1718469;83;21059;-76
2022/03/17 09:22:01;;;;;;;90.63;65.77;;;;;;;8.10;70.10;102124.72;1718649;83;21171;-76
2022/03/17 09:24:30;;;;;;;94.67;66.90;;;;;;;8.21;69.77;102130.82;1718313;82;21495;-75
2022/03/17 09:26:58;;;;;;;90.20;66.53;;;;;;;8.29;69.50;102123.44;1718676;82;20983;-75
2022/03/17 09:29:28;;;;;;;107.17;74.87;;;;;;;8.40;69.36;102126.95;1718565;83;21054;-75
2022/03/17 09:31:54;;;;;;;92.23;65.47;;;;;;;8.50;69.16;102127.36;1724047;81;21073;-77
2022/03/17 09:34:21;;;;;;;95.37;68.07;;;;;;;8.62;68.80;102134.34;1736810;82;21138;-75
2022/03/17 09:36:48;;;;;;;109.30;72.97;;;;;;;8.73;68.69;102135.19;1737343;82;21462;-76
2022/03/17 09:42:01;;;;;;;81.77;58.60;;;;;;;8.99;67.76;102139.05;1737195;82;21013;-75
2022/03/17 09:44:28;;;;;;;84.57;58.60;;;;;;;9.14;67.12;102144.25;1737133;82;21028;-75
2022/03/17 09:46:59;;;;;;;78.27;55.63;;;;;;;9.23;66.58;102135.49;1737236;82;21123;-76
2022/03/17 09:49:26;;;;;;;;;;;;;;;9.31;65.91;102135.03;1744014;81;21017;-76
2022/03/17 09:51:55;;;;;;;97.73;64.30;;;;;;;9.41;65.23;102139.77;1762665;81;20630;-76
2022/03/17 09:54:22;;;;;;;74.37;54.43;;;;;;;9.50;65.38;102134.92;1762662;81;21052;-76
2022/03/17 09:56:49;;;;;;;85.90;59.00;;;;;;;9.60;65.13;102132.70;1762659;81;21351;-76
2022/03/17 09:59:16;;;;;;;103.47;67.73;;;;;;;9.66;64.62;102131.80;1762385;80;21877;-76
2022/03/17 10:01:45;;;;;;;94.20;64.33;;;;;;;9.71;64.04;102129.58;1762167;81;21048;-76
2022/03/17 10:04:12;;;;;;;84.10;59.57;;;;;;;9.77;63.71;102132.16;1762211;81;21000;-77
2022/03/17 10:06:39;;;;;;;78.37;53.33;;;;;;;9.85;63.22;102124.70;1762042;81;21026;-77
2022/03/17 10:09:06;;;;;;;85.13;57.67;;;;;;;9.90;63.06;102125.55;1762136;81;20996;-76
2022/03/17 10:11:37;;;;;;;80.13;55.80;;;;;;;9.95;62.71;102126.36;1762012;81;21961;-77
2022/03/17 10:14:05;;;;;;;77.13;53.07;;;;;;;10.04;62.58;102123.70;1761773;81;20997;-77
2022/03/17 10:16:32;;;;;;;67.17;47.97;;;;;;;10.17;62.47;102117.91;1762028;80;21006;-76
2022/03/17 10:19:03;;;;;;;67.53;48.03;;;;;;;10.27;61.90;102120.48;1762258;81;20974;-77
2022/03/17 10:21:31;;;;;;;73.47;53.93;;;;;;;10.30;61.42;102121.34;1762895;81;21067;-77
2022/03/17 10:24:08;;;;;;;71.43;50.13;;;;;;;10.34;61.03;102120.45;1762472;81;21333;-76
2022/03/17 10:26:54;;;;;;;66.77;48.83;;;;;;;10.41;60.85;102122.12;1762577;80;21490;-77
2022/03/17 10:29:26;;;;;;;67.43;45.83;;;;;;;10.51;60.51;102117.68;1762694;80;20981;-77
2022/03/17 10:32:12;;;;;;;68.10;43.67;;;;;;;10.61;60.00;102114.06;1762957;80;21532;-77
2022/03/17 10:34:55;;;;;;;69.23;48.10;;;;;;;10.66;59.53;102114.44;1762514;80;20997;-78
2022/03/17 10:37:23;;;;;;;66.27;43.50;;;;;;;10.71;59.14;102110.47;1762612;80;21265;-77
2022/03/17 10:39:58;;;;;;;62.35;42.45;;;;;;;10.77;58.66;102117.41;1762667;81;21012;-77
2022/03/17 10:42:29;;;;;;;50.80;36.17;;;;;;;10.84;58.10;102117.78;1762471;81;21056;-75
2022/03/17 10:45:01;;;;;;;64.40;44.40;;;;;;;10.93;57.47;102117.22;1756486;81;21029;-76
2022/03/17 10:47:37;;;;;;;63.13;42.27;;;;;;;11.00;56.96;102115.84;1737420;82;21029;-76
2022/03/17 10:50:17;;;;;;;67.13;45.87;;;;;;;11.08;56.63;102119.24;1737688;82;21207;-76
2022/03/17 10:52:56;;;;;;;67.37;46.48;;;;;;;11.15;56.16;102115.67;1735703;82;21008;-76
2022/03/17 10:55:33;;;;;;;85.30;56.77;;;;;;;11.22;55.81;102112.52;1735580;82;21024;-73
2022/03/17 10:58:18;;;;;;;58.23;41.18;;;;;;;11.29;55.37;102118.13;1735580;82;21537;-75
2022/03/17 11:00:52;;;;;;;60.70;41.18;;;;;;;11.34;55.06;102115.88;1735585;82;21028;-76
2022/03/17 11:03:22;;;;;;;68.22;39.90;;;;;;;11.44;54.72;102119.23;1770503;80;21116;-75
2022/03/17 11:05:53;;;;;;;217.83;59.13;;;;;;;11.52;54.31;102124.38;1778493;80;21255;-77
2022/03/17 11:08:24;;;;;;;70.95;45.00;;;;;;;11.57;54.09;102123.88;1789396;80;22086;-76
2022/03/17 11:10:51;;;;;;;52.93;38.15;;;;;;;11.63;53.96;102126.88;1789380;80;21583;-77
2022/03/17 11:13:19;;;;;;;57.45;38.33;;;;;;;11.71;53.69;102133.75;1789398;80;21019;-76
2022/03/17 11:15:50;;;;;;;56.85;40.73;;;;;;;11.77;53.06;102123.59;1789436;80;21098;-75
2022/03/17 11:18:21;;;;;;;67.87;44.67;;;;;;;11.83;52.88;102124.81;1768722;80;21019;-75
2022/03/17 11:20:48;;;;;;;48.65;33.45;;;;;;;11.93;52.64;102129.09;1789523;79;21035;-76
2022/03/17 11:23:23;;;;;;;47.85;33.10;;;;;;;11.99;52.15;102129.44;1789107;80;21008;-76
2022/03/17 11:25:59;;;;;;;56.50;37.78;;;;;;;12.04;51.98;102129.79;1789680;80;21019;-75
2022/03/17 11:28:36;;;;;;;47.08;34.83;;;;;;;12.06;51.47;102133.72;1789303;80;21110;-75
2022/03/17 11:31:07;;;;;;;40.75;29.98;;;;;;;12.01;51.17;102129.84;1789776;80;20927;-76
2022/03/17 11:33:42;;;;;;;42.50;28.83;;;;;;;11.96;50.97;102126.41;1789533;80;21019;-76
2022/03/17 11:39:19;;;;;;;47.45;32.48;;;;;;;11.73;50.43;102139.00;1651931;86;21447;-75
2022/03/17 11:41:48;;;;;;;48.20;34.48;;;;;;;11.63;50.12;102130.81;1628273;88;21209;-74
2022/03/17 11:44:18;;;;;;;51.73;36.55;;;;;;;11.52;49.85;102130.50;1651780;86;21023;-74
2022/03/17 11:46:47;;;;;;;46.90;34.45;;;;;;;11.46;49.91;102126.65;1585683;89;21054;-75
2022/03/17 11:49:27;;;;;;;46.33;32.83;;;;;;;11.38;49.77;102121.48;1628400;88;21075;-75